sensor_id;sensor_type;location;lat;lon;timestamp;P1;durP1;ratioP1;P2;durP2;ratioP2
5951;SDS011;3001;42.622;23.194;2023-05-27T00:01:23;6.87;;;6.47;;
5951;SDS011;3001;42.622;23.194;2023-05-27T00:03:50;7.23;;;6.63;;
5951;SDS011;3001;42.622;23.194;2023-05-27T00:06:16;8.13;;;7.37;;
5951;SDS011;3001;42.622;23.194;2023-05-27T00:08:43;8.33;;;7.60;;
5951;SDS011;3001;42.622;23.194;2023-05-27T00:11:11;8.67;;;7.80;;
5951;SDS011;3001;42.622;23.194;2023-05-27T00:13:38;9.50;;;8.57;;
5951;SDS011;3001;42.622;23.194;2023-05-27T00:16:05;9.10;;;8.10;;
5951;SDS011;3001;42.622;23.194;2023-05-27T00:18:32;11.63;;;10.40;;
5951;SDS011;3001;42.622;23.194;2023-05-27T00:21:00;15.40;;;11.10;;
5951;SDS011;3001;42.622;23.194;2023-05-27T00:23:27;13.07;;;11.87;;
5951;SDS011;3001;42.622;23.194;2023-05-27T00:25:54;15.00;;;13.57;;
5951;SDS011;3001;42.622;23.194;2023-05-27T00:28:22;13.47;;;11.80;;
5951;SDS011;3001;42.622;23.194;2023-05-27T00:30:49;13.23;;;12.00;;
5951;SDS011;3001;42.622;23.194;2023-05-27T00:33:15;12.27;;;10.87;;
5951;SDS011;3001;42.622;23.194;2023-05-27T00:35:42;15.80;;;12.87;;
5951;SDS011;3001;42.622;23.194;2023-05-27T00:38:10;13.53;;;12.13;;
5951;SDS011;3001;42.622;23.194;2023-05-27T00:40:36;14.07;;;12.40;;
5951;SDS011;3001;42.622;23.194;2023-05-27T00:43:05;12.30;;;11.40;;
5951;SDS011;3001;42.622;23.194;2023-05-27T00:45:33;11.43;;;10.47;;
5951;SDS011;3001;42.622;23.194;2023-05-27T00:48:00;10.27;;;9.20;;
5951;SDS011;3001;42.622;23.194;2023-05-27T00:50:29;8.53;;;7.60;;
5951;SDS011;3001;42.622;23.194;2023-05-27T00:52:56;8.10;;;7.40;;
5951;SDS011;3001;42.622;23.194;2023-05-27T00:55:24;6.30;;;6.00;;
5951;SDS011;3001;42.622;23.194;2023-05-27T00:57:51;4.30;;;4.10;;
5951;SDS011;3001;42.622;23.194;2023-05-27T01:00:19;3.90;;;3.70;;
5951;SDS011;3001;42.622;23.194;2023-05-27T01:02:47;2.40;;;2.30;;
5951;SDS011;3001;42.622;23.194;2023-05-27T01:05:16;2.30;;;2.20;;
5951;SDS011;3001;42.622;23.194;2023-05-27T01:07:48;1.70;;;1.67;;
5951;SDS011;3001;42.622;23.194;2023-05-27T01:10:26;1.70;;;1.60;;
5951;SDS011;3001;42.622;23.194;2023-05-27T01:13:00;4.03;;;1.57;;
5951;SDS011;3001;42.622;23.194;2023-05-27T01:15:30;1.63;;;1.53;;
5951;SDS011;3001;42.622;23.194;2023-05-27T01:18:01;2.27;;;2.17;;
5951;SDS011;3001;42.622;23.194;2023-05-27T01:20:29;2.00;;;1.90;;
5951;SDS011;3001;42.622;23.194;2023-05-27T01:22:58;3.90;;;2.07;;
5951;SDS011;3001;42.622;23.194;2023-05-27T01:25:25;3.43;;;2.50;;
5951;SDS011;3001;42.622;23.194;2023-05-27T01:27:53;2.27;;;2.17;;
5951;SDS011;3001;42.622;23.194;2023-05-27T01:30:21;2.67;;;2.27;;
5951;SDS011;3001;42.622;23.194;2023-05-27T01:32:48;2.73;;;2.63;;
5951;SDS011;3001;42.622;23.194;2023-05-27T01:35:20;2.70;;;2.50;;
5951;SDS011;3001;42.622;23.194;2023-05-27T01:37:51;4.33;;;2.70;;
5951;SDS011;3001;42.622;23.194;2023-05-27T01:40:20;3.50;;;2.50;;
5951;SDS011;3001;42.622;23.194;2023-05-27T01:42:48;3.40;;;3.10;;
5951;SDS011;3001;42.622;23.194;2023-05-27T01:45:15;3.27;;;2.93;;
5951;SDS011;3001;42.622;23.194;2023-05-27T01:47:42;2.87;;;2.77;;
5951;SDS011;3001;42.622;23.194;2023-05-27T01:50:09;3.13;;;2.83;;
5951;SDS011;3001;42.622;23.194;2023-05-27T01:52:36;3.50;;;3.20;;
5951;SDS011;3001;42.622;23.194;2023-05-27T01:55:03;3.07;;;2.83;;
5951;SDS011;3001;42.622;23.194;2023-05-27T01:57:32;2.97;;;2.80;;
5951;SDS011;3001;42.622;23.194;2023-05-27T01:59:58;3.40;;;3.13;;
5951;SDS011;3001;42.622;23.194;2023-05-27T02:02:25;3.40;;;3.20;;
5951;SDS011;3001;42.622;23.194;2023-05-27T02:04:52;3.60;;;3.30;;
5951;SDS011;3001;42.622;23.194;2023-05-27T02:07:19;3.40;;;3.10;;
5951;SDS011;3001;42.622;23.194;2023-05-27T02:09:46;3.50;;;3.30;;
5951;SDS011;3001;42.622;23.194;2023-05-27T02:12:12;4.00;;;3.70;;
5951;SDS011;3001;42.622;23.194;2023-05-27T02:14:41;4.57;;;4.10;;
5951;SDS011;3001;42.622;23.194;2023-05-27T02:17:09;3.97;;;3.77;;
5951;SDS011;3001;42.622;23.194;2023-05-27T02:19:36;4.13;;;3.80;;
5951;SDS011;3001;42.622;23.194;2023-05-27T02:22:03;4.47;;;3.57;;
5951;SDS011;3001;42.622;23.194;2023-05-27T02:24:30;3.57;;;3.37;;
5951;SDS011;3001;42.622;23.194;2023-05-27T02:26:56;3.37;;;3.20;;
5951;SDS011;3001;42.622;23.194;2023-05-27T02:29:24;3.83;;;2.73;;
5951;SDS011;3001;42.622;23.194;2023-05-27T02:31:52;2.93;;;2.73;;
5951;SDS011;3001;42.622;23.194;2023-05-27T02:34:18;2.90;;;2.70;;
5951;SDS011;3001;42.622;23.194;2023-05-27T02:36:45;2.70;;;2.60;;
5951;SDS011;3001;42.622;23.194;2023-05-27T02:39:12;2.97;;;2.77;;
5951;SDS011;3001;42.622;23.194;2023-05-27T02:41:39;2.50;;;2.40;;
5951;SDS011;3001;42.622;23.194;2023-05-27T02:44:05;2.43;;;2.33;;
5951;SDS011;3001;42.622;23.194;2023-05-27T02:46:32;2.73;;;2.63;;
5951;SDS011;3001;42.622;23.194;2023-05-27T02:49:00;2.77;;;2.63;;
5951;SDS011;3001;42.622;23.194;2023-05-27T02:51:27;3.27;;;2.70;;
5951;SDS011;3001;42.622;23.194;2023-05-27T02:53:54;2.90;;;2.80;;
5951;SDS011;3001;42.622;23.194;2023-05-27T02:56:21;2.80;;;2.53;;
5951;SDS011;3001;42.622;23.194;2023-05-27T02:58:50;5.33;;;2.80;;
5951;SDS011;3001;42.622;23.194;2023-05-27T03:01:17;3.10;;;2.90;;
5951;SDS011;3001;42.622;23.194;2023-05-27T03:03:44;2.97;;;2.87;;
5951;SDS011;3001;42.622;23.194;2023-05-27T03:06:12;3.97;;;3.67;;
5951;SDS011;3001;42.622;23.194;2023-05-27T03:08:39;3.60;;;3.13;;
5951;SDS011;3001;42.622;23.194;2023-05-27T03:11:06;5.40;;;2.67;;
5951;SDS011;3001;42.622;23.194;2023-05-27T03:13:33;3.30;;;3.10;;
5951;SDS011;3001;42.622;23.194;2023-05-27T03:15:59;3.30;;;3.00;;
5951;SDS011;3001;42.622;23.194;2023-05-27T03:18:27;2.83;;;2.73;;
5951;SDS011;3001;42.622;23.194;2023-05-27T03:20:53;3.20;;;3.00;;
5951;SDS011;3001;42.622;23.194;2023-05-27T03:23:22;3.63;;;3.43;;
5951;SDS011;3001;42.622;23.194;2023-05-27T03:25:48;4.07;;;3.67;;
5951;SDS011;3001;42.622;23.194;2023-05-27T03:28:15;3.23;;;3.07;;
5951;SDS011;3001;42.622;23.194;2023-05-27T03:30:42;5.67;;;3.40;;
5951;SDS011;3001;42.622;23.194;2023-05-27T03:33:08;3.40;;;3.20;;
5951;SDS011;3001;42.622;23.194;2023-05-27T03:35:35;3.73;;;3.43;;
5951;SDS011;3001;42.622;23.194;2023-05-27T03:38:02;3.80;;;3.50;;
5951;SDS011;3001;42.622;23.194;2023-05-27T03:40:30;3.80;;;3.60;;
5951;SDS011;3001;42.622;23.194;2023-05-27T03:42:56;3.60;;;3.30;;
5951;SDS011;3001;42.622;23.194;2023-05-27T03:45:23;3.60;;;3.40;;
5951;SDS011;3001;42.622;23.194;2023-05-27T03:47:50;3.57;;;3.17;;
5951;SDS011;3001;42.622;23.194;2023-05-27T03:50:17;3.20;;;3.10;;
5951;SDS011;3001;42.622;23.194;2023-05-27T03:52:43;3.67;;;3.37;;
5951;SDS011;3001;42.622;23.194;2023-05-27T03:55:10;3.00;;;2.90;;
5951;SDS011;3001;42.622;23.194;2023-05-27T03:57:38;3.70;;;3.50;;
5951;SDS011;3001;42.622;23.194;2023-05-27T04:00:06;4.90;;;2.93;;
5951;SDS011;3001;42.622;23.194;2023-05-27T04:02:36;3.77;;;3.00;;
5951;SDS011;3001;42.622;23.194;2023-05-27T04:05:03;3.60;;;3.30;;
5951;SDS011;3001;42.622;23.194;2023-05-27T04:07:30;3.33;;;3.03;;
5951;SDS011;3001;42.622;23.194;2023-05-27T04:09:57;3.43;;;3.23;;
5951;SDS011;3001;42.622;23.194;2023-05-27T04:12:24;3.97;;;3.17;;
5951;SDS011;3001;42.622;23.194;2023-05-27T04:14:52;3.53;;;3.33;;
5951;SDS011;3001;42.622;23.194;2023-05-27T04:17:19;3.10;;;3.00;;
5951;SDS011;3001;42.622;23.194;2023-05-27T04:19:45;3.50;;;3.37;;
5951;SDS011;3001;42.622;23.194;2023-05-27T04:22:13;3.20;;;3.00;;
5951;SDS011;3001;42.622;23.194;2023-05-27T04:24:40;3.37;;;3.27;;
5951;SDS011;3001;42.622;23.194;2023-05-27T04:27:08;2.97;;;2.87;;
5951;SDS011;3001;42.622;23.194;2023-05-27T04:29:35;3.20;;;3.10;;
5951;SDS011;3001;42.622;23.194;2023-05-27T04:32:04;3.83;;;3.63;;
5951;SDS011;3001;42.622;23.194;2023-05-27T04:34:31;3.03;;;2.93;;
5951;SDS011;3001;42.622;23.194;2023-05-27T04:36:58;3.27;;;3.17;;
5951;SDS011;3001;42.622;23.194;2023-05-27T04:39:26;3.40;;;3.30;;
5951;SDS011;3001;42.622;23.194;2023-05-27T04:41:52;3.33;;;3.17;;
5951;SDS011;3001;42.622;23.194;2023-05-27T04:44:22;3.70;;;3.50;;
5951;SDS011;3001;42.622;23.194;2023-05-27T04:46:48;3.70;;;3.50;;
5951;SDS011;3001;42.622;23.194;2023-05-27T04:49:16;3.23;;;3.13;;
5951;SDS011;3001;42.622;23.194;2023-05-27T04:51:43;3.47;;;3.27;;
5951;SDS011;3001;42.622;23.194;2023-05-27T04:54:10;3.70;;;3.50;;
5951;SDS011;3001;42.622;23.194;2023-05-27T04:56:37;4.07;;;3.87;;
5951;SDS011;3001;42.622;23.194;2023-05-27T04:59:04;4.50;;;4.20;;
5951;SDS011;3001;42.622;23.194;2023-05-27T05:01:31;4.20;;;3.80;;
5951;SDS011;3001;42.622;23.194;2023-05-27T05:04:14;4.10;;;3.67;;
5951;SDS011;3001;42.622;23.194;2023-05-27T05:06:42;4.13;;;3.83;;
5951;SDS011;3001;42.622;23.194;2023-05-27T05:09:08;3.60;;;3.40;;
5951;SDS011;3001;42.622;23.194;2023-05-27T05:11:36;3.43;;;3.20;;
5951;SDS011;3001;42.622;23.194;2023-05-27T05:14:03;3.47;;;3.17;;
5951;SDS011;3001;42.622;23.194;2023-05-27T05:16:30;3.57;;;3.27;;
5951;SDS011;3001;42.622;23.194;2023-05-27T05:18:56;3.63;;;3.43;;
5951;SDS011;3001;42.622;23.194;2023-05-27T05:21:23;3.57;;;3.37;;
5951;SDS011;3001;42.622;23.194;2023-05-27T05:23:51;3.37;;;3.27;;
5951;SDS011;3001;42.622;23.194;2023-05-27T05:26:18;3.10;;;2.90;;
5951;SDS011;3001;42.622;23.194;2023-05-27T05:28:45;3.50;;;3.20;;
5951;SDS011;3001;42.622;23.194;2023-05-27T05:31:11;3.23;;;3.03;;
5951;SDS011;3001;42.622;23.194;2023-05-27T05:33:38;3.73;;;3.53;;
5951;SDS011;3001;42.622;23.194;2023-05-27T05:36:05;4.37;;;3.67;;
5951;SDS011;3001;42.622;23.194;2023-05-27T05:38:32;3.47;;;3.37;;
5951;SDS011;3001;42.622;23.194;2023-05-27T05:41:00;3.80;;;3.60;;
5951;SDS011;3001;42.622;23.194;2023-05-27T05:43:27;4.60;;;4.20;;
5951;SDS011;3001;42.622;23.194;2023-05-27T05:45:54;5.10;;;4.80;;
5951;SDS011;3001;42.622;23.194;2023-05-27T05:48:20;5.20;;;4.67;;
5951;SDS011;3001;42.622;23.194;2023-05-27T05:50:47;5.07;;;4.67;;
5951;SDS011;3001;42.622;23.194;2023-05-27T05:53:14;5.23;;;4.83;;
5951;SDS011;3001;42.622;23.194;2023-05-27T05:55:41;5.23;;;5.03;;
5951;SDS011;3001;42.622;23.194;2023-05-27T05:58:09;4.90;;;4.60;;
5951;SDS011;3001;42.622;23.194;2023-05-27T06:00:35;5.80;;;5.10;;
5951;SDS011;3001;42.622;23.194;2023-05-27T06:03:02;5.37;;;5.07;;
5951;SDS011;3001;42.622;23.194;2023-05-27T06:05:29;5.50;;;5.20;;
5951;SDS011;3001;42.622;23.194;2023-05-27T06:07:55;6.80;;;6.40;;
5951;SDS011;3001;42.622;23.194;2023-05-27T06:10:22;6.07;;;5.70;;
5951;SDS011;3001;42.622;23.194;2023-05-27T06:12:49;7.60;;;6.03;;
5951;SDS011;3001;42.622;23.194;2023-05-27T06:15:17;6.27;;;5.90;;
5951;SDS011;3001;42.622;23.194;2023-05-27T06:17:43;6.60;;;6.10;;
5951;SDS011;3001;42.622;23.194;2023-05-27T06:20:12;6.17;;;5.77;;
5951;SDS011;3001;42.622;23.194;2023-05-27T06:22:39;6.40;;;6.00;;
5951;SDS011;3001;42.622;23.194;2023-05-27T06:25:06;7.17;;;6.47;;
5951;SDS011;3001;42.622;23.194;2023-05-27T06:27:33;5.70;;;5.20;;
5951;SDS011;3001;42.622;23.194;2023-05-27T06:29:59;5.93;;;5.43;;
5951;SDS011;3001;42.622;23.194;2023-05-27T06:32:27;5.97;;;5.57;;
5951;SDS011;3001;42.622;23.194;2023-05-27T06:34:54;5.67;;;5.33;;
5951;SDS011;3001;42.622;23.194;2023-05-27T06:37:21;6.00;;;5.47;;
5951;SDS011;3001;42.622;23.194;2023-05-27T06:39:47;5.30;;;5.00;;
5951;SDS011;3001;42.622;23.194;2023-05-27T06:42:14;5.97;;;5.67;;
5951;SDS011;3001;42.622;23.194;2023-05-27T06:44:41;5.13;;;4.87;;
5951;SDS011;3001;42.622;23.194;2023-05-27T06:47:08;4.47;;;4.27;;
5951;SDS011;3001;42.622;23.194;2023-05-27T06:49:37;4.20;;;3.93;;
5951;SDS011;3001;42.622;23.194;2023-05-27T06:52:03;4.17;;;3.97;;
5951;SDS011;3001;42.622;23.194;2023-05-27T06:54:30;4.83;;;4.63;;
5951;SDS011;3001;42.622;23.194;2023-05-27T06:56:57;4.30;;;4.10;;
5951;SDS011;3001;42.622;23.194;2023-05-27T06:59:24;4.60;;;4.30;;
5951;SDS011;3001;42.622;23.194;2023-05-27T07:01:50;3.77;;;3.57;;
5951;SDS011;3001;42.622;23.194;2023-05-27T07:04:17;3.80;;;3.60;;
5951;SDS011;3001;42.622;23.194;2023-05-27T07:06:45;4.27;;;3.97;;
5951;SDS011;3001;42.622;23.194;2023-05-27T07:19:45;4.70;;;4.43;;
5951;SDS011;3001;42.622;23.194;2023-05-27T07:22:12;5.03;;;4.63;;
5951;SDS011;3001;42.622;23.194;2023-05-27T07:24:38;5.47;;;5.17;;
5951;SDS011;3001;42.622;23.194;2023-05-27T07:27:05;4.80;;;4.60;;
5951;SDS011;3001;42.622;23.194;2023-05-27T07:29:32;4.90;;;4.57;;
5951;SDS011;3001;42.622;23.194;2023-05-27T07:31:58;4.03;;;3.83;;
5951;SDS011;3001;42.622;23.194;2023-05-27T07:34:25;4.53;;;4.33;;
5951;SDS011;3001;42.622;23.194;2023-05-27T07:36:53;4.07;;;3.87;;
5951;SDS011;3001;42.622;23.194;2023-05-27T07:39:21;3.70;;;3.50;;
5951;SDS011;3001;42.622;23.194;2023-05-27T07:41:47;4.10;;;3.80;;
5951;SDS011;3001;42.622;23.194;2023-05-27T07:44:14;4.73;;;4.53;;
5951;SDS011;3001;42.622;23.194;2023-05-27T07:46:41;3.60;;;3.40;;
5951;SDS011;3001;42.622;23.194;2023-05-27T07:49:07;3.83;;;3.63;;
5951;SDS011;3001;42.622;23.194;2023-05-27T07:51:34;4.17;;;3.87;;
5951;SDS011;3001;42.622;23.194;2023-05-27T07:54:03;3.90;;;3.70;;
5951;SDS011;3001;42.622;23.194;2023-05-27T07:56:30;3.90;;;3.70;;
5951;SDS011;3001;42.622;23.194;2023-05-27T07:58:56;4.10;;;3.90;;
5951;SDS011;3001;42.622;23.194;2023-05-27T08:01:23;3.90;;;3.60;;
5951;SDS011;3001;42.622;23.194;2023-05-27T08:03:55;4.57;;;4.27;;
5951;SDS011;3001;42.622;23.194;2023-05-27T08:06:22;3.83;;;3.63;;
5951;SDS011;3001;42.622;23.194;2023-05-27T08:08:48;4.67;;;4.43;;
5951;SDS011;3001;42.622;23.194;2023-05-27T08:11:16;3.87;;;3.67;;
5951;SDS011;3001;42.622;23.194;2023-05-27T08:13:44;3.57;;;3.47;;
5951;SDS011;3001;42.622;23.194;2023-05-27T08:16:10;4.17;;;3.97;;
5951;SDS011;3001;42.622;23.194;2023-05-27T08:18:37;4.83;;;3.93;;
5951;SDS011;3001;42.622;23.194;2023-05-27T08:21:04;3.80;;;3.60;;
5951;SDS011;3001;42.622;23.194;2023-05-27T08:23:30;3.83;;;3.63;;
5951;SDS011;3001;42.622;23.194;2023-05-27T08:25:58;4.70;;;3.77;;
5951;SDS011;3001;42.622;23.194;2023-05-27T08:28:26;3.40;;;3.20;;
5951;SDS011;3001;42.622;23.194;2023-05-27T08:30:52;5.63;;;3.77;;
5951;SDS011;3001;42.622;23.194;2023-05-27T08:33:19;4.00;;;3.80;;
5951;SDS011;3001;42.622;23.194;2023-05-27T08:35:46;3.93;;;3.73;;
5951;SDS011;3001;42.622;23.194;2023-05-27T08:38:13;4.27;;;3.97;;
5951;SDS011;3001;42.622;23.194;2023-05-27T08:40:39;4.03;;;3.83;;
5951;SDS011;3001;42.622;23.194;2023-05-27T08:43:06;4.40;;;4.10;;
5951;SDS011;3001;42.622;23.194;2023-05-27T08:45:34;4.17;;;3.87;;
5951;SDS011;3001;42.622;23.194;2023-05-27T08:48:02;4.90;;;4.40;;
5951;SDS011;3001;42.622;23.194;2023-05-27T08:50:28;4.47;;;4.17;;
5951;SDS011;3001;42.622;23.194;2023-05-27T08:52:55;4.47;;;4.27;;
5951;SDS011;3001;42.622;23.194;2023-05-27T08:55:22;4.10;;;3.90;;
5951;SDS011;3001;42.622;23.194;2023-05-27T08:57:50;4.80;;;4.50;;
5951;SDS011;3001;42.622;23.194;2023-05-27T09:00:17;4.97;;;4.67;;
5951;SDS011;3001;42.622;23.194;2023-05-27T09:02:46;4.83;;;4.53;;
5951;SDS011;3001;42.622;23.194;2023-05-27T09:05:14;5.13;;;4.83;;
5951;SDS011;3001;42.622;23.194;2023-05-27T09:07:41;5.13;;;4.63;;
5951;SDS011;3001;42.622;23.194;2023-05-27T09:10:09;8.10;;;5.00;;
5951;SDS011;3001;42.622;23.194;2023-05-27T09:12:36;5.07;;;4.67;;
5951;SDS011;3001;42.622;23.194;2023-05-27T09:15:03;4.90;;;4.60;;
5951;SDS011;3001;42.622;23.194;2023-05-27T09:17:30;4.43;;;4.23;;
5951;SDS011;3001;42.622;23.194;2023-05-27T09:19:58;5.67;;;5.27;;
5951;SDS011;3001;42.622;23.194;2023-05-27T09:22:26;5.50;;;5.07;;
5951;SDS011;3001;42.622;23.194;2023-05-27T09:24:55;5.13;;;4.77;;
5951;SDS011;3001;42.622;23.194;2023-05-27T09:27:26;4.83;;;4.53;;
5951;SDS011;3001;42.622;23.194;2023-05-27T09:29:53;4.83;;;4.53;;
5951;SDS011;3001;42.622;23.194;2023-05-27T09:32:24;5.60;;;5.30;;
5951;SDS011;3001;42.622;23.194;2023-05-27T09:34:52;5.27;;;4.90;;
5951;SDS011;3001;42.622;23.194;2023-05-27T09:37:23;4.93;;;4.67;;
5951;SDS011;3001;42.622;23.194;2023-05-27T09:39:51;5.23;;;4.90;;
5951;SDS011;3001;42.622;23.194;2023-05-27T09:42:18;5.47;;;5.17;;
5951;SDS011;3001;42.622;23.194;2023-05-27T09:44:46;5.30;;;4.60;;
5951;SDS011;3001;42.622;23.194;2023-05-27T09:47:14;5.20;;;4.80;;
5951;SDS011;3001;42.622;23.194;2023-05-27T09:49:43;5.37;;;4.87;;
5951;SDS011;3001;42.622;23.194;2023-05-27T09:52:11;6.00;;;5.50;;
5951;SDS011;3001;42.622;23.194;2023-05-27T09:54:44;5.80;;;5.40;;
5951;SDS011;3001;42.622;23.194;2023-05-27T09:57:11;4.90;;;4.63;;
5951;SDS011;3001;42.622;23.194;2023-05-27T09:59:39;5.03;;;4.80;;
5951;SDS011;3001;42.622;23.194;2023-05-27T10:02:06;5.37;;;5.07;;
5951;SDS011;3001;42.622;23.194;2023-05-27T10:04:34;5.07;;;4.77;;
5951;SDS011;3001;42.622;23.194;2023-05-27T10:07:02;5.73;;;5.43;;
5951;SDS011;3001;42.622;23.194;2023-05-27T10:09:28;5.20;;;4.83;;
5951;SDS011;3001;42.622;23.194;2023-05-27T10:11:57;5.20;;;4.90;;
5951;SDS011;3001;42.622;23.194;2023-05-27T10:14:24;5.87;;;5.47;;
5951;SDS011;3001;42.622;23.194;2023-05-27T10:16:52;5.53;;;5.23;;
5951;SDS011;3001;42.622;23.194;2023-05-27T10:19:21;5.70;;;5.10;;
5951;SDS011;3001;42.622;23.194;2023-05-27T10:21:48;5.63;;;5.13;;
5951;SDS011;3001;42.622;23.194;2023-05-27T10:24:15;5.70;;;5.33;;
5951;SDS011;3001;42.622;23.194;2023-05-27T10:26:42;5.73;;;5.33;;
5951;SDS011;3001;42.622;23.194;2023-05-27T10:29:11;4.60;;;4.40;;
5951;SDS011;3001;42.622;23.194;2023-05-27T10:31:49;5.27;;;4.97;;
5951;SDS011;3001;42.622;23.194;2023-05-27T10:34:17;5.87;;;5.43;;
5951;SDS011;3001;42.622;23.194;2023-05-27T10:36:44;5.67;;;5.40;;
5951;SDS011;3001;42.622;23.194;2023-05-27T10:39:12;5.97;;;5.57;;
5951;SDS011;3001;42.622;23.194;2023-05-27T10:41:40;5.80;;;5.30;;
5951;SDS011;3001;42.622;23.194;2023-05-27T10:44:08;5.63;;;5.23;;
5951;SDS011;3001;42.622;23.194;2023-05-27T10:46:40;5.40;;;5.20;;
5951;SDS011;3001;42.622;23.194;2023-05-27T10:49:09;5.67;;;5.33;;
5951;SDS011;3001;42.622;23.194;2023-05-27T10:51:36;5.73;;;5.43;;
5951;SDS011;3001;42.622;23.194;2023-05-27T10:54:04;5.77;;;5.30;;
5951;SDS011;3001;42.622;23.194;2023-05-27T10:56:32;5.53;;;5.23;;
5951;SDS011;3001;42.622;23.194;2023-05-27T10:58:59;5.50;;;5.10;;
5951;SDS011;3001;42.622;23.194;2023-05-27T11:01:27;5.27;;;4.97;;
5951;SDS011;3001;42.622;23.194;2023-05-27T11:03:58;5.80;;;5.40;;
5951;SDS011;3001;42.622;23.194;2023-05-27T11:06:25;6.17;;;5.63;;
5951;SDS011;3001;42.622;23.194;2023-05-27T11:08:52;6.00;;;5.70;;
5951;SDS011;3001;42.622;23.194;2023-05-27T11:11:19;6.47;;;5.97;;
5951;SDS011;3001;42.622;23.194;2023-05-27T11:13:46;5.37;;;5.07;;
5951;SDS011;3001;42.622;23.194;2023-05-27T11:16:13;5.60;;;5.30;;
5951;SDS011;3001;42.622;23.194;2023-05-27T11:18:41;5.97;;;5.47;;
5951;SDS011;3001;42.622;23.194;2023-05-27T11:21:11;5.67;;;5.17;;
5951;SDS011;3001;42.622;23.194;2023-05-27T11:23:41;6.33;;;5.33;;
5951;SDS011;3001;42.622;23.194;2023-05-27T11:26:15;5.40;;;4.90;;
5951;SDS011;3001;42.622;23.194;2023-05-27T11:28:46;5.50;;;5.20;;
5951;SDS011;3001;42.622;23.194;2023-05-27T11:31:14;5.67;;;5.43;;
5951;SDS011;3001;42.622;23.194;2023-05-27T11:33:42;5.47;;;5.17;;
5951;SDS011;3001;42.622;23.194;2023-05-27T11:36:12;5.60;;;5.20;;
5951;SDS011;3001;42.622;23.194;2023-05-27T11:38:47;5.57;;;5.27;;
5951;SDS011;3001;42.622;23.194;2023-05-27T11:41:15;5.80;;;5.23;;
5951;SDS011;3001;42.622;23.194;2023-05-27T11:43:48;6.20;;;5.50;;
5951;SDS011;3001;42.622;23.194;2023-05-27T11:46:16;5.70;;;5.30;;
5951;SDS011;3001;42.622;23.194;2023-05-27T11:48:43;6.00;;;5.20;;
5951;SDS011;3001;42.622;23.194;2023-05-27T11:51:12;6.17;;;5.87;;
5951;SDS011;3001;42.622;23.194;2023-05-27T11:53:39;5.30;;;5.00;;
5951;SDS011;3001;42.622;23.194;2023-05-27T11:56:07;5.13;;;4.93;;
5951;SDS011;3001;42.622;23.194;2023-05-27T11:58:33;5.40;;;5.10;;
5951;SDS011;3001;42.622;23.194;2023-05-27T12:01:01;4.97;;;4.60;;
5951;SDS011;3001;42.622;23.194;2023-05-27T12:03:29;6.53;;;5.23;;
5951;SDS011;3001;42.622;23.194;2023-05-27T12:05:56;5.07;;;4.67;;
5951;SDS011;3001;42.622;23.194;2023-05-27T12:08:24;4.60;;;4.40;;
5951;SDS011;3001;42.622;23.194;2023-05-27T12:10:51;4.00;;;3.80;;
5951;SDS011;3001;42.622;23.194;2023-05-27T12:13:19;4.80;;;4.40;;
5951;SDS011;3001;42.622;23.194;2023-05-27T12:15:45;4.63;;;4.20;;
5951;SDS011;3001;42.622;23.194;2023-05-27T12:18:12;4.10;;;3.67;;
5951;SDS011;3001;42.622;23.194;2023-05-27T12:20:39;3.73;;;3.47;;
5951;SDS011;3001;42.622;23.194;2023-05-27T12:23:06;4.20;;;3.90;;
5951;SDS011;3001;42.622;23.194;2023-05-27T12:25:34;3.67;;;3.57;;
5951;SDS011;3001;42.622;23.194;2023-05-27T12:28:00;4.20;;;4.00;;
5951;SDS011;3001;42.622;23.194;2023-05-27T12:30:28;4.27;;;4.07;;
5951;SDS011;3001;42.622;23.194;2023-05-27T12:32:55;4.17;;;3.87;;
5951;SDS011;3001;42.622;23.194;2023-05-27T12:35:22;4.23;;;4.03;;
5951;SDS011;3001;42.622;23.194;2023-05-27T12:37:49;4.83;;;4.30;;
5951;SDS011;3001;42.622;23.194;2023-05-27T12:40:16;3.93;;;3.73;;
5951;SDS011;3001;42.622;23.194;2023-05-27T12:42:44;3.90;;;3.70;;
5951;SDS011;3001;42.622;23.194;2023-05-27T12:45:11;4.87;;;4.57;;
5951;SDS011;3001;42.622;23.194;2023-05-27T12:47:38;5.17;;;4.67;;
5951;SDS011;3001;42.622;23.194;2023-05-27T12:50:05;4.23;;;4.03;;
5951;SDS011;3001;42.622;23.194;2023-05-27T12:52:32;4.30;;;3.97;;
5951;SDS011;3001;42.622;23.194;2023-05-27T12:55:00;3.83;;;3.60;;
5951;SDS011;3001;42.622;23.194;2023-05-27T12:57:27;4.33;;;4.03;;
5951;SDS011;3001;42.622;23.194;2023-05-27T12:59:56;4.10;;;3.90;;
5951;SDS011;3001;42.622;23.194;2023-05-27T13:02:22;3.97;;;3.73;;
5951;SDS011;3001;42.622;23.194;2023-05-27T13:04:49;3.87;;;3.67;;
5951;SDS011;3001;42.622;23.194;2023-05-27T13:07:16;4.27;;;3.87;;
5951;SDS011;3001;42.622;23.194;2023-05-27T13:09:42;4.67;;;4.33;;
5951;SDS011;3001;42.622;23.194;2023-05-27T13:12:10;4.33;;;4.13;;
5951;SDS011;3001;42.622;23.194;2023-05-27T13:14:36;4.20;;;3.90;;
5951;SDS011;3001;42.622;23.194;2023-05-27T13:17:05;4.60;;;4.30;;
5951;SDS011;3001;42.622;23.194;2023-05-27T13:19:31;4.07;;;3.87;;
5951;SDS011;3001;42.622;23.194;2023-05-27T13:21:58;4.50;;;4.20;;
5951;SDS011;3001;42.622;23.194;2023-05-27T13:24:25;4.30;;;4.10;;
5951;SDS011;3001;42.622;23.194;2023-05-27T13:26:52;4.80;;;4.50;;
5951;SDS011;3001;42.622;23.194;2023-05-27T13:29:18;5.00;;;4.60;;
5951;SDS011;3001;42.622;23.194;2023-05-27T13:31:45;4.67;;;4.47;;
5951;SDS011;3001;42.622;23.194;2023-05-27T13:34:13;4.53;;;4.23;;
5951;SDS011;3001;42.622;23.194;2023-05-27T13:36:40;4.17;;;3.97;;
5951;SDS011;3001;42.622;23.194;2023-05-27T13:39:07;5.27;;;5.03;;
5951;SDS011;3001;42.622;23.194;2023-05-27T13:41:34;4.77;;;4.53;;
5951;SDS011;3001;42.622;23.194;2023-05-27T13:44:00;4.93;;;4.73;;
5951;SDS011;3001;42.622;23.194;2023-05-27T13:46:27;5.00;;;4.70;;
5951;SDS011;3001;42.622;23.194;2023-05-27T13:48:54;4.60;;;4.30;;
5951;SDS011;3001;42.622;23.194;2023-05-27T13:51:22;4.90;;;4.60;;
5951;SDS011;3001;42.622;23.194;2023-05-27T13:53:48;5.23;;;4.70;;
5951;SDS011;3001;42.622;23.194;2023-05-27T13:56:15;4.47;;;4.27;;
5951;SDS011;3001;42.622;23.194;2023-05-27T13:58:42;4.57;;;4.37;;
5951;SDS011;3001;42.622;23.194;2023-05-27T14:01:08;4.50;;;4.30;;
5951;SDS011;3001;42.622;23.194;2023-05-27T14:03:35;4.65;;;4.30;;
5951;SDS011;3001;42.622;23.194;2023-05-27T14:06:02;4.67;;;4.47;;
5951;SDS011;3001;42.622;23.194;2023-05-27T14:08:30;4.40;;;4.20;;
5951;SDS011;3001;42.622;23.194;2023-05-27T14:10:57;4.50;;;4.20;;
5951;SDS011;3001;42.622;23.194;2023-05-27T14:13:23;4.10;;;3.90;;
5951;SDS011;3001;42.622;23.194;2023-05-27T14:15:50;4.30;;;4.10;;
5951;SDS011;3001;42.622;23.194;2023-05-27T14:18:18;4.67;;;4.40;;
5951;SDS011;3001;42.622;23.194;2023-05-27T14:20:45;3.97;;;3.80;;
5951;SDS011;3001;42.622;23.194;2023-05-27T14:23:12;4.63;;;4.43;;
5951;SDS011;3001;42.622;23.194;2023-05-27T14:25:42;4.37;;;3.97;;
5951;SDS011;3001;42.622;23.194;2023-05-27T14:28:09;4.67;;;4.27;;
5951;SDS011;3001;42.622;23.194;2023-05-27T14:30:36;4.70;;;4.50;;
5951;SDS011;3001;42.622;23.194;2023-05-27T14:33:02;4.37;;;4.17;;
5951;SDS011;3001;42.622;23.194;2023-05-27T14:35:31;4.83;;;4.43;;
5951;SDS011;3001;42.622;23.194;2023-05-27T14:37:58;4.47;;;4.17;;
5951;SDS011;3001;42.622;23.194;2023-05-27T14:40:25;5.50;;;4.50;;
5951;SDS011;3001;42.622;23.194;2023-05-27T14:42:53;4.07;;;3.80;;
5951;SDS011;3001;42.622;23.194;2023-05-27T14:45:20;4.57;;;4.27;;
5951;SDS011;3001;42.622;23.194;2023-05-27T14:47:47;4.60;;;4.30;;
5951;SDS011;3001;42.622;23.194;2023-05-27T14:50:15;4.57;;;4.20;;
5951;SDS011;3001;42.622;23.194;2023-05-27T14:52:42;5.13;;;4.23;;
5951;SDS011;3001;42.622;23.194;2023-05-27T14:55:08;5.27;;;4.87;;
5951;SDS011;3001;42.622;23.194;2023-05-27T14:57:35;5.03;;;4.73;;
5951;SDS011;3001;42.622;23.194;2023-05-27T15:00:04;4.93;;;4.63;;
5951;SDS011;3001;42.622;23.194;2023-05-27T15:02:33;5.60;;;5.20;;
5951;SDS011;3001;42.622;23.194;2023-05-27T15:05:01;4.40;;;4.10;;
5951;SDS011;3001;42.622;23.194;2023-05-27T15:07:29;5.30;;;5.00;;
5951;SDS011;3001;42.622;23.194;2023-05-27T15:09:55;5.00;;;4.80;;
5951;SDS011;3001;42.622;23.194;2023-05-27T15:12:23;4.37;;;4.17;;